Terminal Aerodrome Forecast
Issued by NWS

Home | Current Version | Previous Version | Text Only | Print | Product List | Glossary Off
Versions: 1 2 3 4 5 6 7 8 9 10 11 12 13 14 15

982
FTUS42 KMHX 220931 AAA
TAFPGV
TAF AMD
KPGV 220931Z 2210/2306 23005KT P6SM BKN120
      TEMPO 2209/2212 BKN006
     FM221230 25005KT P6SM BKN060
     FM221500 25006KT P6SM SCT060 SCT200
      AMD LTD TO CLD VIS AND WIND=

USA.gov is the U.S. government's official web portal to all federal, state and local government web resources and services.